Repülésmeteorológia

  • METAR LHSM 240945Z 16003KT CAVOK 28/17 Q1017 NOSIG=
  • METAR LHSM 240915Z 06002KT CAVOK 28/13 Q1017 NOSIG=
  • METAR LHSM 240845Z 03003KT CAVOK 27/13 Q1017 NOSIG=
  • METAR LHSM 240815Z 02002KT CAVOK 27/15 Q1017 NOSIG=
  • METAR LHSM 240745Z 05003KT CAVOK 26/15 Q1018 NOSIG=

  • TAF LHSM 240815Z 2409/2418 04004KT CAVOK
  • TAF LHSM 240515Z 2406/2415 VRB03KT CAVOK=
  • TAF LHSM 231115Z 2312/2321 24007KT CAVOK
  • TAF LHSM 230815Z 2309/2318 24010KT CAVOK
  • TAF LHSM 230515Z 2306/2315 27006KT CAVOK BECMG 2306/2309 28012KT